sensor_id;sensor_type;location;lat;lon;timestamp;temperature;humidity
15359;DHT22;7779;49.596;11.070;2023-04-03T00:00:29;5.70;60.10
15359;DHT22;7779;49.596;11.070;2023-04-03T00:02:55;5.60;60.60
15359;DHT22;7779;49.596;11.070;2023-04-03T00:05:21;5.60;59.90
15359;DHT22;7779;49.596;11.070;2023-04-03T00:07:47;5.60;59.90
15359;DHT22;7779;49.596;11.070;2023-04-03T00:10:12;5.60;59.90
15359;DHT22;7779;49.596;11.070;2023-04-03T00:12:39;5.60;59.80
15359;DHT22;7779;49.596;11.070;2023-04-03T00:15:05;5.60;59.80
15359;DHT22;7779;49.596;11.070;2023-04-03T00:17:31;5.50;59.70
15359;DHT22;7779;49.596;11.070;2023-04-03T00:19:56;5.50;59.80
15359;DHT22;7779;49.596;11.070;2023-04-03T00:22:22;5.50;59.70
15359;DHT22;7779;49.596;11.070;2023-04-03T00:24:48;5.40;59.70
15359;DHT22;7779;49.596;11.070;2023-04-03T00:27:13;5.40;59.80
15359;DHT22;7779;49.596;11.070;2023-04-03T00:29:41;5.40;59.90
15359;DHT22;7779;49.596;11.070;2023-04-03T00:32:06;5.30;59.90
15359;DHT22;7779;49.596;11.070;2023-04-03T00:34:32;5.30;59.90
15359;DHT22;7779;49.596;11.070;2023-04-03T00:36:58;5.30;60.00
15359;DHT22;7779;49.596;11.070;2023-04-03T00:39:24;5.20;60.00
15359;DHT22;7779;49.596;11.070;2023-04-03T00:41:50;5.20;60.00
15359;DHT22;7779;49.596;11.070;2023-04-03T00:47:02;5.20;59.90
15359;DHT22;7779;49.596;11.070;2023-04-03T00:49:30;5.10;60.00
15359;DHT22;7779;49.596;11.070;2023-04-03T00:51:57;5.10;60.10
15359;DHT22;7779;49.596;11.070;2023-04-03T00:54:25;5.10;60.20
15359;DHT22;7779;49.596;11.070;2023-04-03T00:56:53;5.10;60.20
15359;DHT22;7779;49.596;11.070;2023-04-03T00:59:27;5.10;60.30
15359;DHT22;7779;49.596;11.070;2023-04-03T01:01:57;5.00;59.40
15359;DHT22;7779;49.596;11.070;2023-04-03T01:04:35;5.00;60.30
15359;DHT22;7779;49.596;11.070;2023-04-03T01:07:09;5.00;60.30
15359;DHT22;7779;49.596;11.070;2023-04-03T01:09:38;5.00;60.30
15359;DHT22;7779;49.596;11.070;2023-04-03T01:12:29;5.00;60.30
15359;DHT22;7779;49.596;11.070;2023-04-03T01:15:05;5.00;60.00
15359;DHT22;7779;49.596;11.070;2023-04-03T01:17:41;4.90;60.20
15359;DHT22;7779;49.596;11.070;2023-04-03T01:25:39;4.90;60.10
15359;DHT22;7779;49.596;11.070;2023-04-03T01:28:08;4.80;60.30
15359;DHT22;7779;49.596;11.070;2023-04-03T01:33:49;4.80;60.00
15359;DHT22;7779;49.596;11.070;2023-04-03T01:36:21;4.70;60.30
15359;DHT22;7779;49.596;11.070;2023-04-03T01:38:50;4.70;60.30
15359;DHT22;7779;49.596;11.070;2023-04-03T01:41:17;4.70;60.30
15359;DHT22;7779;49.596;11.070;2023-04-03T01:43:45;4.60;60.30
15359;DHT22;7779;49.596;11.070;2023-04-03T01:46:10;4.60;60.20
15359;DHT22;7779;49.596;11.070;2023-04-03T01:48:37;4.60;60.30
15359;DHT22;7779;49.596;11.070;2023-04-03T01:51:03;4.50;60.20
15359;DHT22;7779;49.596;11.070;2023-04-03T01:53:29;4.50;60.30
15359;DHT22;7779;49.596;11.070;2023-04-03T01:55:55;4.40;59.40
15359;DHT22;7779;49.596;11.070;2023-04-03T01:58:21;4.40;60.30
15359;DHT22;7779;49.596;11.070;2023-04-03T02:00:48;4.40;60.40
15359;DHT22;7779;49.596;11.070;2023-04-03T02:03:14;4.30;60.40
15359;DHT22;7779;49.596;11.070;2023-04-03T02:05:40;4.30;59.90
15359;DHT22;7779;49.596;11.070;2023-04-03T02:08:06;4.30;60.60
15359;DHT22;7779;49.596;11.070;2023-04-03T02:10:32;4.20;60.60
15359;DHT22;7779;49.596;11.070;2023-04-03T02:12:58;4.20;60.80
15359;DHT22;7779;49.596;11.070;2023-04-03T02:15:24;4.10;60.30
15359;DHT22;7779;49.596;11.070;2023-04-03T02:17:50;4.10;61.00
15359;DHT22;7779;49.596;11.070;2023-04-03T02:20:17;4.10;61.20
15359;DHT22;7779;49.596;11.070;2023-04-03T02:22:43;4.10;61.50
15359;DHT22;7779;49.596;11.070;2023-04-03T02:25:09;4.10;61.10
15359;DHT22;7779;49.596;11.070;2023-04-03T02:27:36;4.10;61.90
15359;DHT22;7779;49.596;11.070;2023-04-03T02:30:03;4.10;62.00
15359;DHT22;7779;49.596;11.070;2023-04-03T02:32:30;4.10;62.10
15359;DHT22;7779;49.596;11.070;2023-04-03T02:34:56;4.20;62.30
15359;DHT22;7779;49.596;11.070;2023-04-03T02:37:22;4.20;62.30
15359;DHT22;7779;49.596;11.070;2023-04-03T02:39:49;4.20;62.40
15359;DHT22;7779;49.596;11.070;2023-04-03T02:42:15;4.30;62.50
15359;DHT22;7779;49.596;11.070;2023-04-03T02:44:40;4.30;62.60
15359;DHT22;7779;49.596;11.070;2023-04-03T02:47:08;4.40;62.60
15359;DHT22;7779;49.596;11.070;2023-04-03T02:49:34;4.40;62.60
15359;DHT22;7779;49.596;11.070;2023-04-03T02:51:59;4.40;62.50
15359;DHT22;7779;49.596;11.070;2023-04-03T02:54:25;4.40;62.60
15359;DHT22;7779;49.596;11.070;2023-04-03T02:56:55;4.50;62.60
15359;DHT22;7779;49.596;11.070;2023-04-03T02:59:21;4.50;62.70
15359;DHT22;7779;49.596;11.070;2023-04-03T03:01:47;4.50;62.60
15359;DHT22;7779;49.596;11.070;2023-04-03T03:04:13;4.60;62.70
15359;DHT22;7779;49.596;11.070;2023-04-03T03:06:38;4.60;62.70
15359;DHT22;7779;49.596;11.070;2023-04-03T03:09:04;4.60;62.60
15359;DHT22;7779;49.596;11.070;2023-04-03T03:11:31;4.60;62.60
15359;DHT22;7779;49.596;11.070;2023-04-03T03:13:57;4.60;62.50
15359;DHT22;7779;49.596;11.070;2023-04-03T03:16:24;4.60;62.50
15359;DHT22;7779;49.596;11.070;2023-04-03T03:18:50;4.60;62.50
15359;DHT22;7779;49.596;11.070;2023-04-03T03:21:16;4.60;62.40
15359;DHT22;7779;49.596;11.070;2023-04-03T03:23:42;4.60;62.40
15359;DHT22;7779;49.596;11.070;2023-04-03T03:26:10;4.60;62.00
15359;DHT22;7779;49.596;11.070;2023-04-03T03:28:37;4.60;62.50
15359;DHT22;7779;49.596;11.070;2023-04-03T03:31:06;4.60;62.50
15359;DHT22;7779;49.596;11.070;2023-04-03T03:33:33;4.60;62.50
15359;DHT22;7779;49.596;11.070;2023-04-03T03:35:59;4.50;62.00
15359;DHT22;7779;49.596;11.070;2023-04-03T03:38:25;4.50;62.50
15359;DHT22;7779;49.596;11.070;2023-04-03T03:40:53;4.50;62.60
15359;DHT22;7779;49.596;11.070;2023-04-03T03:43:20;4.50;62.70
15359;DHT22;7779;49.596;11.070;2023-04-03T03:45:54;4.40;62.70
15359;DHT22;7779;49.596;11.070;2023-04-03T03:48:22;4.40;62.80
15359;DHT22;7779;49.596;11.070;2023-04-03T03:50:48;4.40;62.70
15359;DHT22;7779;49.596;11.070;2023-04-03T03:53:16;4.40;62.80
15359;DHT22;7779;49.596;11.070;2023-04-03T03:55:42;4.30;62.50
15359;DHT22;7779;49.596;11.070;2023-04-03T03:58:08;4.30;62.80
15359;DHT22;7779;49.596;11.070;2023-04-03T04:00:34;4.30;62.80
15359;DHT22;7779;49.596;11.070;2023-04-03T04:03:01;4.30;62.80
15359;DHT22;7779;49.596;11.070;2023-04-03T04:05:29;4.20;62.80
15359;DHT22;7779;49.596;11.070;2023-04-03T04:07:54;4.20;62.80
15359;DHT22;7779;49.596;11.070;2023-04-03T04:10:21;4.20;62.80
15359;DHT22;7779;49.596;11.070;2023-04-03T04:12:47;4.10;63.00
15359;DHT22;7779;49.596;11.070;2023-04-03T04:15:15;4.10;62.80
15359;DHT22;7779;49.596;11.070;2023-04-03T04:17:41;4.10;63.00
15359;DHT22;7779;49.596;11.070;2023-04-03T04:20:10;4.10;63.00
15359;DHT22;7779;49.596;11.070;2023-04-03T04:22:37;4.00;63.00
15359;DHT22;7779;49.596;11.070;2023-04-03T04:25:06;4.00;63.00
15359;DHT22;7779;49.596;11.070;2023-04-03T04:27:32;4.00;63.20
15359;DHT22;7779;49.596;11.070;2023-04-03T04:29:58;4.00;63.20
15359;DHT22;7779;49.596;11.070;2023-04-03T04:32:23;4.00;63.30
15359;DHT22;7779;49.596;11.070;2023-04-03T04:34:49;3.90;63.20
15359;DHT22;7779;49.596;11.070;2023-04-03T04:37:15;3.90;63.20
15359;DHT22;7779;49.596;11.070;2023-04-03T04:39:41;3.90;63.20
15359;DHT22;7779;49.596;11.070;2023-04-03T04:42:08;3.90;63.20
15359;DHT22;7779;49.596;11.070;2023-04-03T04:44:39;3.90;63.40
15359;DHT22;7779;49.596;11.070;2023-04-03T04:47:05;3.80;63.20
15359;DHT22;7779;49.596;11.070;2023-04-03T04:49:31;3.80;63.20
15359;DHT22;7779;49.596;11.070;2023-04-03T04:51:57;3.80;63.30
15359;DHT22;7779;49.596;11.070;2023-04-03T04:54:27;3.80;63.20
15359;DHT22;7779;49.596;11.070;2023-04-03T04:56:53;3.70;63.20
15359;DHT22;7779;49.596;11.070;2023-04-03T04:59:20;3.70;63.20
15359;DHT22;7779;49.596;11.070;2023-04-03T05:01:46;3.70;63.30
15359;DHT22;7779;49.596;11.070;2023-04-03T05:04:15;3.70;63.30
15359;DHT22;7779;49.596;11.070;2023-04-03T05:06:44;3.70;63.40
15359;DHT22;7779;49.596;11.070;2023-04-03T05:09:14;3.60;63.30
15359;DHT22;7779;49.596;11.070;2023-04-03T05:11:42;3.60;63.40
15359;DHT22;7779;49.596;11.070;2023-04-03T05:14:09;3.60;63.40
15359;DHT22;7779;49.596;11.070;2023-04-03T05:16:35;3.60;63.50
15359;DHT22;7779;49.596;11.070;2023-04-03T05:19:02;3.60;63.50
15359;DHT22;7779;49.596;11.070;2023-04-03T05:21:28;3.60;63.60
15359;DHT22;7779;49.596;11.070;2023-04-03T05:23:59;3.60;63.60
15359;DHT22;7779;49.596;11.070;2023-04-03T05:26:30;3.60;63.60
15359;DHT22;7779;49.596;11.070;2023-04-03T05:28:57;3.60;63.70
15359;DHT22;7779;49.596;11.070;2023-04-03T05:31:23;3.60;63.70
15359;DHT22;7779;49.596;11.070;2023-04-03T05:33:50;3.70;63.90
15359;DHT22;7779;49.596;11.070;2023-04-03T05:36:17;3.70;64.00
15359;DHT22;7779;49.596;11.070;2023-04-03T05:38:46;3.80;64.00
15359;DHT22;7779;49.596;11.070;2023-04-03T05:41:15;3.80;64.10
15359;DHT22;7779;49.596;11.070;2023-04-03T05:43:43;3.80;64.10
15359;DHT22;7779;49.596;11.070;2023-04-03T05:46:15;3.90;64.90
15359;DHT22;7779;49.596;11.070;2023-04-03T05:48:45;3.90;64.30
15359;DHT22;7779;49.596;11.070;2023-04-03T05:51:22;4.00;64.30
15359;DHT22;7779;49.596;11.070;2023-04-03T05:53:59;4.00;64.30
15359;DHT22;7779;49.596;11.070;2023-04-03T05:56:31;4.10;64.40
15359;DHT22;7779;49.596;11.070;2023-04-03T05:58:57;4.10;64.30
15359;DHT22;7779;49.596;11.070;2023-04-03T06:01:23;4.10;64.30
15359;DHT22;7779;49.596;11.070;2023-04-03T06:03:49;4.20;64.40
15359;DHT22;7779;49.596;11.070;2023-04-03T06:06:15;4.30;63.70
15359;DHT22;7779;49.596;11.070;2023-04-03T06:08:41;4.30;64.40
15359;DHT22;7779;49.596;11.070;2023-04-03T06:11:06;4.40;64.50
15359;DHT22;7779;49.596;11.070;2023-04-03T06:13:34;4.50;64.60
15359;DHT22;7779;49.596;11.070;2023-04-03T06:16:00;4.50;64.40
15359;DHT22;7779;49.596;11.070;2023-04-03T06:18:27;4.60;64.40
15359;DHT22;7779;49.596;11.070;2023-04-03T06:20:54;4.60;64.40
15359;DHT22;7779;49.596;11.070;2023-04-03T06:23:20;4.70;64.40
15359;DHT22;7779;49.596;11.070;2023-04-03T06:25:46;4.70;64.30
15359;DHT22;7779;49.596;11.070;2023-04-03T06:28:12;4.70;64.10
15359;DHT22;7779;49.596;11.070;2023-04-03T06:30:38;4.80;64.00
15359;DHT22;7779;49.596;11.070;2023-04-03T06:33:04;4.80;63.80
15359;DHT22;7779;49.596;11.070;2023-04-03T06:35:30;4.90;63.90
15359;DHT22;7779;49.596;11.070;2023-04-03T06:37:56;4.90;63.80
15359;DHT22;7779;49.596;11.070;2023-04-03T06:40:24;5.00;63.90
15359;DHT22;7779;49.596;11.070;2023-04-03T06:42:51;5.00;63.80
15359;DHT22;7779;49.596;11.070;2023-04-03T06:45:18;5.00;62.70
15359;DHT22;7779;49.596;11.070;2023-04-03T06:47:44;5.10;63.80
15359;DHT22;7779;49.596;11.070;2023-04-03T06:50:11;5.10;62.20
15359;DHT22;7779;49.596;11.070;2023-04-03T06:52:39;5.10;63.40
15359;DHT22;7779;49.596;11.070;2023-04-03T06:55:06;5.20;63.60
15359;DHT22;7779;49.596;11.070;2023-04-03T06:57:32;5.20;63.40
15359;DHT22;7779;49.596;11.070;2023-04-03T06:59:58;5.20;63.30
15359;DHT22;7779;49.596;11.070;2023-04-03T07:02:24;5.20;63.40
15359;DHT22;7779;49.596;11.070;2023-04-03T07:04:50;5.30;63.30
15359;DHT22;7779;49.596;11.070;2023-04-03T07:07:16;5.30;63.40
15359;DHT22;7779;49.596;11.070;2023-04-03T07:09:43;5.40;63.00
15359;DHT22;7779;49.596;11.070;2023-04-03T07:12:08;5.40;63.20
15359;DHT22;7779;49.596;11.070;2023-04-03T07:14:34;5.40;63.00
15359;DHT22;7779;49.596;11.070;2023-04-03T07:17:00;5.40;63.00
15359;DHT22;7779;49.596;11.070;2023-04-03T07:19:26;5.50;62.60
15359;DHT22;7779;49.596;11.070;2023-04-03T07:21:53;5.50;62.70
15359;DHT22;7779;49.596;11.070;2023-04-03T07:24:19;5.50;62.70
15359;DHT22;7779;49.596;11.070;2023-04-03T07:26:52;5.60;62.90
15359;DHT22;7779;49.596;11.070;2023-04-03T07:29:18;5.60;62.90
15359;DHT22;7779;49.596;11.070;2023-04-03T07:31:45;5.70;62.80
15359;DHT22;7779;49.596;11.070;2023-04-03T07:34:11;5.70;62.70
15359;DHT22;7779;49.596;11.070;2023-04-03T07:36:37;5.80;63.00
15359;DHT22;7779;49.596;11.070;2023-04-03T07:39:03;5.80;62.60
15359;DHT22;7779;49.596;11.070;2023-04-03T07:41:29;5.80;62.70
15359;DHT22;7779;49.596;11.070;2023-04-03T07:43:55;5.80;62.10
15359;DHT22;7779;49.596;11.070;2023-04-03T07:46:22;5.80;62.10
15359;DHT22;7779;49.596;11.070;2023-04-03T07:48:48;5.90;62.10
15359;DHT22;7779;49.596;11.070;2023-04-03T07:51:14;5.90;61.80
15359;DHT22;7779;49.596;11.070;2023-04-03T07:53:40;5.90;62.10
15359;DHT22;7779;49.596;11.070;2023-04-03T07:56:06;5.90;62.30
15359;DHT22;7779;49.596;11.070;2023-04-03T07:58:32;6.00;62.20
15359;DHT22;7779;49.596;11.070;2023-04-03T08:00:59;6.00;61.60
15359;DHT22;7779;49.596;11.070;2023-04-03T08:03:25;6.10;61.90
15359;DHT22;7779;49.596;11.070;2023-04-03T08:05:51;6.10;61.90
15359;DHT22;7779;49.596;11.070;2023-04-03T08:08:21;6.10;61.70
15359;DHT22;7779;49.596;11.070;2023-04-03T08:10:52;6.20;61.80
15359;DHT22;7779;49.596;11.070;2023-04-03T08:13:19;6.20;61.50
15359;DHT22;7779;49.596;11.070;2023-04-03T08:15:46;6.30;61.00
15359;DHT22;7779;49.596;11.070;2023-04-03T08:18:13;6.30;60.70
15359;DHT22;7779;49.596;11.070;2023-04-03T08:20:40;6.30;60.60
15359;DHT22;7779;49.596;11.070;2023-04-03T08:23:07;6.30;60.60
15359;DHT22;7779;49.596;11.070;2023-04-03T08:25:38;6.20;60.60
15359;DHT22;7779;49.596;11.070;2023-04-03T08:28:05;6.20;60.60
15359;DHT22;7779;49.596;11.070;2023-04-03T08:30:31;6.20;60.50
15359;DHT22;7779;49.596;11.070;2023-04-03T08:32:56;6.20;60.50
15359;DHT22;7779;49.596;11.070;2023-04-03T08:35:22;6.30;60.80
15359;DHT22;7779;49.596;11.070;2023-04-03T08:37:48;6.30;61.00
15359;DHT22;7779;49.596;11.070;2023-04-03T08:40:16;6.40;60.90
15359;DHT22;7779;49.596;11.070;2023-04-03T08:45:40;6.50;60.10
15359;DHT22;7779;49.596;11.070;2023-04-03T08:48:24;6.70;59.50
15359;DHT22;7779;49.596;11.070;2023-04-03T08:51:16;6.70;60.30
15359;DHT22;7779;49.596;11.070;2023-04-03T08:54:04;6.80;59.80
15359;DHT22;7779;49.596;11.070;2023-04-03T08:56:38;6.80;59.00
15359;DHT22;7779;49.596;11.070;2023-04-03T08:59:10;6.90;60.00
15359;DHT22;7779;49.596;11.070;2023-04-03T09:01:40;6.90;60.50
15359;DHT22;7779;49.596;11.070;2023-04-03T09:04:15;7.00;59.70
15359;DHT22;7779;49.596;11.070;2023-04-03T09:06:45;7.10;59.30
15359;DHT22;7779;49.596;11.070;2023-04-03T09:12:17;7.20;59.60
15359;DHT22;7779;49.596;11.070;2023-04-03T09:15:21;7.30;59.10
15359;DHT22;7779;49.596;11.070;2023-04-03T09:18:05;7.40;59.00
15359;DHT22;7779;49.596;11.070;2023-04-03T09:20:49;7.50;58.10
15359;DHT22;7779;49.596;11.070;2023-04-03T09:26:23;7.50;57.80
15359;DHT22;7779;49.596;11.070;2023-04-03T09:28:54;7.40;57.10
15359;DHT22;7779;49.596;11.070;2023-04-03T09:31:36;7.40;57.40
15359;DHT22;7779;49.596;11.070;2023-04-03T09:36:53;7.40;56.90
15359;DHT22;7779;49.596;11.070;2023-04-03T09:39:29;7.50;58.40
15359;DHT22;7779;49.596;11.070;2023-04-03T09:42:00;7.50;56.80
15359;DHT22;7779;49.596;11.070;2023-04-03T09:44:38;7.60;57.40
15359;DHT22;7779;49.596;11.070;2023-04-03T09:47:24;7.60;58.00
15359;DHT22;7779;49.596;11.070;2023-04-03T09:52:45;7.70;56.00
15359;DHT22;7779;49.596;11.070;2023-04-03T09:55:17;7.60;56.10
15359;DHT22;7779;49.596;11.070;2023-04-03T09:57:57;7.60;56.20
15359;DHT22;7779;49.596;11.070;2023-04-03T10:03:01;7.50;56.20
15359;DHT22;7779;49.596;11.070;2023-04-03T10:05:36;7.40;55.70
15359;DHT22;7779;49.596;11.070;2023-04-03T10:10:45;7.30;56.00
15359;DHT22;7779;49.596;11.070;2023-04-03T10:13:15;7.30;57.00
15359;DHT22;7779;49.596;11.070;2023-04-03T10:15:51;7.30;55.90
15359;DHT22;7779;49.596;11.070;2023-04-03T10:18:40;7.20;55.60
15359;DHT22;7779;49.596;11.070;2023-04-03T10:21:40;7.30;56.20
15359;DHT22;7779;49.596;11.070;2023-04-03T10:24:43;7.30;55.10
15359;DHT22;7779;49.596;11.070;2023-04-03T10:27:18;7.30;54.30
15359;DHT22;7779;49.596;11.070;2023-04-03T10:30:19;7.40;56.90
15359;DHT22;7779;49.596;11.070;2023-04-03T10:44:20;7.90;56.00
15359;DHT22;7779;49.596;11.070;2023-04-03T10:47:18;8.00;56.90
15359;DHT22;7779;49.596;11.070;2023-04-03T10:50:04;8.10;55.70
15359;DHT22;7779;49.596;11.070;2023-04-03T10:55:36;8.20;55.80
15359;DHT22;7779;49.596;11.070;2023-04-03T10:58:14;8.30;55.90
15359;DHT22;7779;49.596;11.070;2023-04-03T11:00:49;8.30;55.20
15359;DHT22;7779;49.596;11.070;2023-04-03T11:03:29;8.30;55.40
15359;DHT22;7779;49.596;11.070;2023-04-03T11:06:00;8.40;55.00
15359;DHT22;7779;49.596;11.070;2023-04-03T11:08:35;8.50;55.80
15359;DHT22;7779;49.596;11.070;2023-04-03T11:11:25;8.50;55.80
15359;DHT22;7779;49.596;11.070;2023-04-03T11:14:05;8.60;55.20
15359;DHT22;7779;49.596;11.070;2023-04-03T11:16:45;8.60;54.90
15359;DHT22;7779;49.596;11.070;2023-04-03T11:22:28;8.60;54.40
15359;DHT22;7779;49.596;11.070;2023-04-03T11:30:28;8.60;53.70
15359;DHT22;7779;49.596;11.070;2023-04-03T11:33:09;8.60;54.00
15359;DHT22;7779;49.596;11.070;2023-04-03T11:35:47;8.60;53.40
15359;DHT22;7779;49.596;11.070;2023-04-03T11:38:38;8.70;54.40
15359;DHT22;7779;49.596;11.070;2023-04-03T11:41:09;8.70;53.60
15359;DHT22;7779;49.596;11.070;2023-04-03T11:43:55;8.80;53.80
15359;DHT22;7779;49.596;11.070;2023-04-03T11:58:16;8.80;52.60
15359;DHT22;7779;49.596;11.070;2023-04-03T12:08:48;8.60;51.10
15359;DHT22;7779;49.596;11.070;2023-04-03T12:11:32;8.60;52.80
15359;DHT22;7779;49.596;11.070;2023-04-03T12:14:04;8.60;52.00
15359;DHT22;7779;49.596;11.070;2023-04-03T12:24:29;8.60;53.70
15359;DHT22;7779;49.596;11.070;2023-04-03T12:38:13;8.90;52.60
15359;DHT22;7779;49.596;11.070;2023-04-03T12:41:16;8.90;52.40
15359;DHT22;7779;49.596;11.070;2023-04-03T12:46:28;8.90;52.40
15359;DHT22;7779;49.596;11.070;2023-04-03T12:49:22;8.90;52.40
15359;DHT22;7779;49.596;11.070;2023-04-03T12:52:04;8.90;51.70
15359;DHT22;7779;49.596;11.070;2023-04-03T12:54:43;8.90;52.40
15359;DHT22;7779;49.596;11.070;2023-04-03T12:59:40;9.00;52.50
15359;DHT22;7779;49.596;11.070;2023-04-03T13:04:56;9.10;51.50
15359;DHT22;7779;49.596;11.070;2023-04-03T13:07:35;9.10;52.20
15359;DHT22;7779;49.596;11.070;2023-04-03T13:12:34;9.10;52.20
15359;DHT22;7779;49.596;11.070;2023-04-03T13:15:11;9.10;51.70
15359;DHT22;7779;49.596;11.070;2023-04-03T13:17:41;9.10;52.20
15359;DHT22;7779;49.596;11.070;2023-04-03T13:20:20;9.10;52.20
15359;DHT22;7779;49.596;11.070;2023-04-03T13:23:01;9.20;51.20
15359;DHT22;7779;49.596;11.070;2023-04-03T13:25:33;9.20;51.90
15359;DHT22;7779;49.596;11.070;2023-04-03T13:28:04;9.10;51.80
15359;DHT22;7779;49.596;11.070;2023-04-03T13:30:35;9.10;51.20
15359;DHT22;7779;49.596;11.070;2023-04-03T13:33:05;9.10;51.20
15359;DHT22;7779;49.596;11.070;2023-04-03T13:35:44;9.00;49.10
15359;DHT22;7779;49.596;11.070;2023-04-03T13:40:55;9.00;51.10
15359;DHT22;7779;49.596;11.070;2023-04-03T13:43:27;9.00;51.30
15359;DHT22;7779;49.596;11.070;2023-04-03T13:48:22;9.00;51.90
15359;DHT22;7779;49.596;11.070;2023-04-03T13:51:00;9.00;51.30
15359;DHT22;7779;49.596;11.070;2023-04-03T13:53:30;9.00;48.50
15359;DHT22;7779;49.596;11.070;2023-04-03T13:56:08;9.00;51.20
15359;DHT22;7779;49.596;11.070;2023-04-03T13:59:05;8.90;50.00
15359;DHT22;7779;49.596;11.070;2023-04-03T14:07:11;8.80;48.80
15359;DHT22;7779;49.596;11.070;2023-04-03T14:09:37;8.80;50.90
15359;DHT22;7779;49.596;11.070;2023-04-03T14:12:12;8.80;50.70
15359;DHT22;7779;49.596;11.070;2023-04-03T14:14:41;8.80;50.90
15359;DHT22;7779;49.596;11.070;2023-04-03T14:17:18;8.80;51.40
15359;DHT22;7779;49.596;11.070;2023-04-03T14:19:47;8.70;50.40
15359;DHT22;7779;49.596;11.070;2023-04-03T14:24:45;8.70;50.10
15359;DHT22;7779;49.596;11.070;2023-04-03T14:27:18;8.70;50.10
15359;DHT22;7779;49.596;11.070;2023-04-03T14:29:46;8.60;50.20
15359;DHT22;7779;49.596;11.070;2023-04-03T14:32:14;8.60;50.10
15359;DHT22;7779;49.596;11.070;2023-04-03T14:34:43;8.60;49.30
15359;DHT22;7779;49.596;11.070;2023-04-03T14:37:15;8.50;49.80
15359;DHT22;7779;49.596;11.070;2023-04-03T14:39:44;8.50;50.20
15359;DHT22;7779;49.596;11.070;2023-04-03T14:42:16;8.50;50.20
15359;DHT22;7779;49.596;11.070;2023-04-03T14:44:44;8.50;49.80
15359;DHT22;7779;49.596;11.070;2023-04-03T14:47:12;8.40;50.40
15359;DHT22;7779;49.596;11.070;2023-04-03T14:49:41;8.50;50.30
15359;DHT22;7779;49.596;11.070;2023-04-03T14:52:25;8.50;50.90
15359;DHT22;7779;49.596;11.070;2023-04-03T14:54:54;8.50;49.00
15359;DHT22;7779;49.596;11.070;2023-04-03T14:57:23;8.50;50.40
15359;DHT22;7779;49.596;11.070;2023-04-03T14:59:51;8.60;50.10
15359;DHT22;7779;49.596;11.070;2023-04-03T15:02:35;8.60;50.80
15359;DHT22;7779;49.596;11.070;2023-04-03T15:05:08;8.60;49.20
15359;DHT22;7779;49.596;11.070;2023-04-03T15:07:44;8.60;49.80
15359;DHT22;7779;49.596;11.070;2023-04-03T15:10:19;8.60;50.20
15359;DHT22;7779;49.596;11.070;2023-04-03T15:12:47;8.60;50.00
15359;DHT22;7779;49.596;11.070;2023-04-03T15:15:15;8.60;50.00
15359;DHT22;7779;49.596;11.070;2023-04-03T15:17:42;8.60;49.40
15359;DHT22;7779;49.596;11.070;2023-04-03T15:20:15;8.60;49.60
15359;DHT22;7779;49.596;11.070;2023-04-03T15:22:42;8.50;49.00
15359;DHT22;7779;49.596;11.070;2023-04-03T15:25:08;8.50;48.90
15359;DHT22;7779;49.596;11.070;2023-04-03T15:27:35;8.40;48.40
15359;DHT22;7779;49.596;11.070;2023-04-03T15:30:03;8.40;49.50
15359;DHT22;7779;49.596;11.070;2023-04-03T15:32:30;8.40;49.10
15359;DHT22;7779;49.596;11.070;2023-04-03T15:34:56;8.30;49.00
15359;DHT22;7779;49.596;11.070;2023-04-03T15:37:22;8.30;49.50
15359;DHT22;7779;49.596;11.070;2023-04-03T15:39:48;8.30;49.50
15359;DHT22;7779;49.596;11.070;2023-04-03T15:42:14;8.30;49.20
15359;DHT22;7779;49.596;11.070;2023-04-03T15:44:40;8.30;49.30
15359;DHT22;7779;49.596;11.070;2023-04-03T15:47:06;8.20;48.90
15359;DHT22;7779;49.596;11.070;2023-04-03T15:49:35;8.20;49.20
15359;DHT22;7779;49.596;11.070;2023-04-03T15:52:00;8.20;49.20
15359;DHT22;7779;49.596;11.070;2023-04-03T15:54:27;8.10;49.70
15359;DHT22;7779;49.596;11.070;2023-04-03T15:56:54;8.10;49.30
15359;DHT22;7779;49.596;11.070;2023-04-03T15:59:20;8.10;49.30
15359;DHT22;7779;49.596;11.070;2023-04-03T16:01:48;8.10;49.30
15359;DHT22;7779;49.596;11.070;2023-04-03T16:04:15;8.00;49.00
15359;DHT22;7779;49.596;11.070;2023-04-03T16:06:41;8.00;49.10
15359;DHT22;7779;49.596;11.070;2023-04-03T16:09:09;8.00;48.60
15359;DHT22;7779;49.596;11.070;2023-04-03T16:11:35;8.00;48.30
15359;DHT22;7779;49.596;11.070;2023-04-03T16:14:05;7.90;48.40
15359;DHT22;7779;49.596;11.070;2023-04-03T16:16:32;7.90;48.30
15359;DHT22;7779;49.596;11.070;2023-04-03T16:18:58;7.90;48.70
15359;DHT22;7779;49.596;11.070;2023-04-03T16:21:24;7.80;48.30
15359;DHT22;7779;49.596;11.070;2023-04-03T16:23:49;7.80;48.80
15359;DHT22;7779;49.596;11.070;2023-04-03T16:26:16;7.80;48.80
15359;DHT22;7779;49.596;11.070;2023-04-03T16:28:43;7.80;48.80
15359;DHT22;7779;49.596;11.070;2023-04-03T16:31:09;7.70;48.40
15359;DHT22;7779;49.596;11.070;2023-04-03T16:33:35;7.70;49.00
15359;DHT22;7779;49.596;11.070;2023-04-03T16:36:03;7.60;48.60
15359;DHT22;7779;49.596;11.070;2023-04-03T16:38:30;7.60;48.50
15359;DHT22;7779;49.596;11.070;2023-04-03T16:40:55;7.60;48.90
15359;DHT22;7779;49.596;11.070;2023-04-03T16:43:26;7.50;48.50
15359;DHT22;7779;49.596;11.070;2023-04-03T16:45:52;7.50;48.30
15359;DHT22;7779;49.596;11.070;2023-04-03T16:48:17;7.50;48.50
15359;DHT22;7779;49.596;11.070;2023-04-03T16:50:47;7.40;48.40
15359;DHT22;7779;49.596;11.070;2023-04-03T16:53:20;7.40;48.60
15359;DHT22;7779;49.596;11.070;2023-04-03T16:55:47;7.30;48.60
15359;DHT22;7779;49.596;11.070;2023-04-03T16:58:13;7.20;48.10
15359;DHT22;7779;49.596;11.070;2023-04-03T17:00:40;7.20;48.50
15359;DHT22;7779;49.596;11.070;2023-04-03T17:03:06;7.10;48.60
15359;DHT22;7779;49.596;11.070;2023-04-03T17:05:32;7.00;48.10
15359;DHT22;7779;49.596;11.070;2023-04-03T17:07:57;7.00;48.40
15359;DHT22;7779;49.596;11.070;2023-04-03T17:10:23;6.90;48.20
15359;DHT22;7779;49.596;11.070;2023-04-03T17:12:50;6.90;47.70
15359;DHT22;7779;49.596;11.070;2023-04-03T17:15:16;6.80;48.30
15359;DHT22;7779;49.596;11.070;2023-04-03T17:17:42;6.70;48.20
15359;DHT22;7779;49.596;11.070;2023-04-03T17:20:09;6.70;48.20
15359;DHT22;7779;49.596;11.070;2023-04-03T17:22:35;6.60;49.00
15359;DHT22;7779;49.596;11.070;2023-04-03T17:25:02;6.60;48.50
15359;DHT22;7779;49.596;11.070;2023-04-03T17:27:28;6.50;48.10
15359;DHT22;7779;49.596;11.070;2023-04-03T17:29:55;6.50;48.40
15359;DHT22;7779;49.596;11.070;2023-04-03T17:32:21;6.40;48.30
15359;DHT22;7779;49.596;11.070;2023-04-03T17:34:48;6.30;48.50
15359;DHT22;7779;49.596;11.070;2023-04-03T17:37:13;6.30;48.30
15359;DHT22;7779;49.596;11.070;2023-04-03T17:39:39;6.20;48.20
15359;DHT22;7779;49.596;11.070;2023-04-03T17:42:05;6.20;48.40
15359;DHT22;7779;49.596;11.070;2023-04-03T17:44:31;6.10;48.10
15359;DHT22;7779;49.596;11.070;2023-04-03T17:46:57;6.00;48.10
15359;DHT22;7779;49.596;11.070;2023-04-03T17:49:22;6.00;48.30
15359;DHT22;7779;49.596;11.070;2023-04-03T17:51:49;5.90;48.30
15359;DHT22;7779;49.596;11.070;2023-04-03T17:54:15;5.90;48.30
15359;DHT22;7779;49.596;11.070;2023-04-03T17:56:42;5.80;48.40